Time;durP1;ratioP1;P1;durP2;ratioP2;P2;SDS_P1;SDS_P2;PMS_P1;PMS_P2;Temp;Humidity;BMP_temperature;BMP_pressure;BME280_temperature;BME280_humidity;BME280_pressure;Samples;Min_cycle;Max_cycle;Signal;HPM_P1;HPM_P2
2021/12/31 00:01:40;;;;;;;6.93;6.10;;;14.20;99.90;;;;;;5052222;28;20613;-77
2021/12/31 00:04:07;;;;;;;7.67;6.13;;;14.10;99.90;;;;;;5052462;28;20211;-78
2021/12/31 00:06:36;;;;;;;8.47;6.53;;;14.10;99.90;;;;;;5051046;28;20234;-78
2021/12/31 00:09:03;;;;;;;8.63;6.00;;;14.20;99.90;;;;;;5052388;28;20206;-78
2021/12/31 00:11:30;;;;;;;6.80;5.30;;;14.20;99.90;;;;;;5051307;28;20604;-78
2021/12/31 00:13:59;;;;;;;5.70;5.13;;;14.20;99.90;;;;;;5051269;28;20202;-78
2021/12/31 00:16:26;;;;;;;7.73;5.90;;;14.20;99.90;;;;;;5050398;28;20240;-78
2021/12/31 00:18:54;;;;;;;7.70;5.70;;;14.20;99.90;;;;;;5050207;28;20553;-78
2021/12/31 00:21:21;;;;;;;7.33;5.80;;;14.30;99.90;;;;;;5049583;28;20281;-77
2021/12/31 00:23:48;;;;;;;8.50;6.13;;;14.20;99.90;;;;;;5049726;28;20645;-76
2021/12/31 00:26:15;;;;;;;7.20;6.03;;;14.20;99.90;;;;;;5046524;28;20617;-77
2021/12/31 00:28:42;;;;;;;7.10;5.80;;;14.20;99.90;;;;;;5048820;28;20210;-71
2021/12/31 00:31:10;;;;;;;7.90;6.37;;;14.20;99.90;;;;;;5050372;28;20287;-76
2021/12/31 00:33:37;;;;;;;9.47;7.20;;;14.30;99.90;;;;;;5048951;28;20199;-72
2021/12/31 00:36:04;;;;;;;8.53;6.47;;;14.20;99.90;;;;;;5048115;28;20595;-72
2021/12/31 00:38:31;;;;;;;9.37;6.83;;;14.20;99.90;;;;;;5047147;28;20245;-72
2021/12/31 00:40:58;;;;;;;7.30;5.77;;;14.20;99.90;;;;;;5048052;28;20203;-72
2021/12/31 00:43:25;;;;;;;7.40;6.00;;;14.30;99.90;;;;;;5049902;28;20650;-72
2021/12/31 00:45:52;;;;;;;9.07;6.27;;;14.30;99.90;;;;;;5051942;28;20199;-72
2021/12/31 00:48:21;;;;;;;7.43;5.33;;;14.20;99.90;;;;;;5051487;28;20195;-72
2021/12/31 00:50:48;;;;;;;6.93;5.30;;;14.20;99.90;;;;;;5049658;28;20198;-72
2021/12/31 00:53:15;;;;;;;5.57;4.83;;;14.20;99.90;;;;;;5051469;28;20604;-72
2021/12/31 00:55:42;;;;;;;5.50;4.33;;;14.20;99.90;;;;;;5047480;28;20311;-72
2021/12/31 00:58:09;;;;;;;7.20;4.60;;;14.20;99.90;;;;;;5050698;28;20207;-75
2021/12/31 01:00:36;;;;;;;5.40;4.63;;;14.20;99.90;;;;;;5050142;28;20269;-72
2021/12/31 01:03:04;;;;;;;5.50;4.13;;;14.20;99.90;;;;;;5049837;28;20195;-72
2021/12/31 01:05:32;;;;;;;5.00;4.43;;;14.10;99.90;;;;;;5051310;28;20618;-72
2021/12/31 01:07:59;;;;;;;6.20;4.60;;;14.10;99.90;;;;;;5049889;28;20241;-72
2021/12/31 01:10:28;;;;;;;6.90;4.80;;;14.20;99.90;;;;;;5050874;28;20203;-72
2021/12/31 01:12:55;;;;;;;6.33;4.70;;;14.30;99.90;;;;;;5049086;28;20261;-72
2021/12/31 01:15:33;;;;;;;5.80;4.13;;;14.20;99.90;;;;;;5050494;28;20649;-72
2021/12/31 01:18:21;;;;;;;4.23;3.83;;;14.20;99.90;;;;;;5050508;28;20198;-72
2021/12/31 01:20:50;;;;;;;5.30;4.80;;;14.10;99.90;;;;;;5050133;28;20699;-72
2021/12/31 01:23:18;;;;;;;5.77;5.03;;;13.90;99.90;;;;;;5048126;28;20626;-72
2021/12/31 01:25:45;;;;;;;7.53;5.17;;;13.90;99.90;;;;;;5050280;28;20211;-72
2021/12/31 01:28:12;;;;;;;6.07;5.57;;;13.90;99.90;;;;;;5050924;28;20210;-72
2021/12/31 01:30:40;;;;;;;7.67;5.97;;;13.80;99.90;;;;;;5049854;28;20199;-72
2021/12/31 01:33:07;;;;;;;8.40;5.80;;;13.70;99.90;;;;;;5049703;28;20624;-72
2021/12/31 01:35:34;;;;;;;6.97;6.27;;;13.80;99.90;;;;;;5049536;28;20267;-72
2021/12/31 01:38:02;;;;;;;7.80;6.27;;;13.80;99.90;;;;;;5049532;28;20649;-72
2021/12/31 01:40:29;;;;;;;7.13;5.93;;;13.90;99.90;;;;;;5050142;28;20191;-72
2021/12/31 01:42:56;;;;;;;6.67;5.97;;;13.90;99.90;;;;;;5048932;28;20264;-72
2021/12/31 01:45:28;;;;;;;6.23;5.60;;;13.80;99.90;;;;;;5051107;28;20633;-72
2021/12/31 01:48:05;;;;;;;6.67;6.00;;;13.80;99.90;;;;;;5048879;28;20665;-72
2021/12/31 01:50:33;;;;;;;7.03;5.70;;;13.90;99.90;;;;;;5050550;28;20555;-72
2021/12/31 01:53:02;;;;;;;7.20;6.50;;;13.90;99.90;;;;;;5048996;28;20640;-72
2021/12/31 01:55:32;;;;;;;6.77;6.07;;;13.90;99.90;;;;;;5050593;28;20238;-72
2021/12/31 01:58:01;;;;;;;7.23;6.53;;;13.90;99.90;;;;;;5049765;28;20674;-72
2021/12/31 02:00:28;;;;;;;6.87;6.27;;;13.80;99.90;;;;;;5047690;28;20633;-72
2021/12/31 02:02:56;;;;;;;8.73;7.20;;;13.90;99.90;;;;;;5047235;28;20308;-72
2021/12/31 02:05:23;;;;;;;8.93;7.30;;;13.80;99.90;;;;;;5048078;28;20257;-72
2021/12/31 02:07:50;;;;;;;8.83;7.63;;;13.80;99.90;;;;;;5050320;28;20202;-72
2021/12/31 02:10:20;;;;;;;8.47;7.50;;;13.80;99.90;;;;;;5050261;28;20218;-72
2021/12/31 02:12:49;;;;;;;8.53;7.73;;;13.80;99.90;;;;;;5048417;28;20595;-72
2021/12/31 02:15:17;;;;;;;9.73;8.30;;;13.80;99.90;;;;;;5049494;28;20360;-72
2021/12/31 02:17:47;;;;;;;10.00;8.53;;;13.80;99.90;;;;;;5051008;28;20295;-72
2021/12/31 02:20:16;;;;;;;10.20;8.43;;;13.80;99.90;;;;;;5052998;28;20363;-72
2021/12/31 02:22:51;;;;;;;11.20;8.57;;;13.80;99.90;;;;;;5049958;28;20203;-72
2021/12/31 02:25:22;;;;;;;9.53;8.53;;;13.80;99.90;;;;;;5052694;28;20485;-72
2021/12/31 02:27:51;;;;;;;9.90;8.03;;;13.70;99.90;;;;;;5051651;28;20245;-72
2021/12/31 02:30:18;;;;;;;10.60;8.33;;;13.70;99.90;;;;;;5053877;28;20253;-72
2021/12/31 02:32:45;;;;;;;10.77;8.90;;;13.60;99.90;;;;;;5051791;28;20206;-72
2021/12/31 02:35:12;;;;;;;9.87;8.13;;;13.50;99.90;;;;;;5053770;28;20194;-72
2021/12/31 02:37:41;;;;;;;8.73;7.73;;;13.50;99.90;;;;;;5053094;28;20226;-72
2021/12/31 02:40:12;;;;;;;8.93;7.60;;;13.40;99.90;;;;;;5053311;28;20718;-72
2021/12/31 02:42:39;;;;;;;11.40;7.80;;;13.50;99.90;;;;;;5046874;28;20207;-72
2021/12/31 02:45:08;;;;;;;10.80;6.57;;;13.50;99.90;;;;;;5051293;28;20199;-72
2021/12/31 02:47:37;;;;;;;7.60;6.50;;;13.50;99.90;;;;;;5053922;28;20199;-72
2021/12/31 02:50:05;;;;;;;8.03;6.90;;;13.50;99.90;;;;;;5051444;28;20207;-72
2021/12/31 02:52:33;;;;;;;8.03;6.40;;;13.50;99.90;;;;;;5052882;28;20207;-73
2021/12/31 02:55:02;;;;;;;7.87;7.07;;;13.60;99.90;;;;;;5052989;28;20202;-72
2021/12/31 02:57:29;;;;;;;7.83;7.13;;;13.50;99.90;;;;;;5053782;28;20292;-72
2021/12/31 02:59:56;;;;;;;11.33;7.63;;;13.50;99.90;;;;;;5051508;28;20195;-72
2021/12/31 03:02:25;;;;;;;9.40;7.00;;;13.50;99.90;;;;;;5052503;28;20258;-72
2021/12/31 03:04:53;;;;;;;7.77;7.00;;;13.50;99.90;;;;;;5051362;28;20288;-72
2021/12/31 03:07:20;;;;;;;7.73;6.80;;;13.50;99.90;;;;;;5053574;28;20203;-72
2021/12/31 03:09:50;;;;;;;9.43;6.77;;;13.60;99.90;;;;;;5052913;28;20207;-72
2021/12/31 03:12:18;;;;;;;6.70;6.10;;;13.50;99.90;;;;;;5052543;28;20706;-72
2021/12/31 03:14:48;;;;;;;7.80;6.67;;;13.50;99.90;;;;;;5051922;28;20191;-72
2021/12/31 03:17:16;;;;;;;8.27;6.93;;;13.50;99.90;;;;;;5052923;28;20273;-72
2021/12/31 03:19:43;;;;;;;7.47;6.63;;;13.50;99.90;;;;;;5051962;28;20253;-72
2021/12/31 03:22:11;;;;;;;6.87;6.27;;;13.50;99.90;;;;;;5052137;28;20211;-72
2021/12/31 03:24:39;;;;;;;7.70;6.87;;;13.50;99.90;;;;;;5051240;28;20202;-72
2021/12/31 03:27:06;;;;;;;8.80;7.47;;;13.50;99.90;;;;;;5052544;28;20665;-72
2021/12/31 03:29:35;;;;;;;8.70;7.10;;;13.50;99.90;;;;;;5050841;28;20195;-72
2021/12/31 03:32:02;;;;;;;10.30;7.93;;;13.50;99.90;;;;;;5050860;28;20195;-72
2021/12/31 03:34:29;;;;;;;9.80;7.77;;;13.50;99.90;;;;;;5051653;28;20211;-72
2021/12/31 03:36:56;;;;;;;9.40;7.60;;;13.60;99.90;;;;;;5052999;28;20219;-73
2021/12/31 03:39:23;;;;;;;11.60;8.03;;;13.50;99.90;;;;;;5051966;28;20213;-72
2021/12/31 03:41:50;;;;;;;11.67;8.37;;;13.60;99.90;;;;;;5050935;28;20715;-72
2021/12/31 03:44:17;;;;;;;10.17;8.37;;;13.50;99.90;;;;;;5050079;28;20195;-72
2021/12/31 03:46:45;;;;;;;10.97;7.93;;;13.50;99.90;;;;;;5052778;28;20238;-72
2021/12/31 03:49:12;;;;;;;11.17;8.03;;;13.50;99.90;;;;;;5050848;28;20202;-72
2021/12/31 03:51:39;;;;;;;10.07;8.87;;;13.50;99.90;;;;;;5052044;28;20187;-72
2021/12/31 03:54:06;;;;;;;10.53;8.93;;;13.50;99.90;;;;;;5050264;28;20195;-72
2021/12/31 03:56:34;;;;;;;11.50;9.07;;;13.40;99.90;;;;;;5052690;28;20356;-72
2021/12/31 03:59:01;;;;;;;11.83;9.57;;;13.40;99.90;;;;;;5050309;28;20480;-72
2021/12/31 04:01:29;;;;;;;12.23;9.40;;;13.50;99.90;;;;;;5051687;28;20206;-72
2021/12/31 04:03:57;;;;;;;10.40;9.30;;;13.40;99.90;;;;;;5049734;28;20280;-72
2021/12/31 04:06:25;;;;;;;12.63;9.57;;;13.40;99.90;;;;;;5051731;28;20195;-72
2021/12/31 04:08:52;;;;;;;12.37;9.37;;;13.40;99.90;;;;;;5052130;28;20416;-72
2021/12/31 04:11:20;;;;;;;11.53;9.50;;;13.40;99.90;;;;;;5052161;28;20211;-72
2021/12/31 04:13:47;;;;;;;11.40;9.87;;;13.40;99.90;;;;;;5049485;28;20225;-72
2021/12/31 04:16:14;;;;;;;11.97;9.70;;;13.40;99.90;;;;;;5041114;28;20196;-72
2021/12/31 04:18:41;;;;;;;13.70;10.53;;;13.40;99.90;;;;;;5051360;28;20280;-72
2021/12/31 04:21:09;;;;;;;13.13;10.43;;;13.40;99.90;;;;;;5050699;28;20194;-72
2021/12/31 04:23:48;;;;;;;12.57;9.47;;;13.50;99.90;;;;;;5050810;28;20228;-72
2021/12/31 04:26:16;;;;;;;10.47;8.50;;;13.50;99.90;;;;;;5048842;28;20209;-72
2021/12/31 04:28:43;;;;;;;9.60;8.40;;;13.40;99.90;;;;;;5051497;28;20199;-75
2021/12/31 04:31:10;;;;;;;9.30;8.23;;;13.50;99.90;;;;;;5051449;28;20715;-75
2021/12/31 04:33:37;;;;;;;10.13;7.57;;;13.50;99.90;;;;;;5050117;28;20203;-75
2021/12/31 04:36:05;;;;;;;10.23;7.40;;;13.60;99.90;;;;;;5051158;28;20199;-75
2021/12/31 04:38:33;;;;;;;12.93;7.90;;;13.60;99.90;;;;;;5050094;28;20227;-75
2021/12/31 04:41:00;;;;;;;10.20;7.30;;;13.60;99.90;;;;;;5051618;28;20711;-75
2021/12/31 04:43:27;;;;;;;8.37;6.83;;;13.60;99.90;;;;;;5050189;28;20256;-75
2021/12/31 04:45:54;;;;;;;12.03;6.93;;;13.60;99.90;;;;;;5050289;28;20734;-75
2021/12/31 04:48:22;;;;;;;8.70;6.70;;;13.60;99.90;;;;;;5051383;28;20668;-75
2021/12/31 04:50:49;;;;;;;7.23;5.93;;;13.60;99.90;;;;;;5049481;28;20186;-75
2021/12/31 04:53:16;;;;;;;9.97;5.73;;;13.70;99.90;;;;;;5050261;28;20203;-75
2021/12/31 04:55:44;;;;;;;8.80;5.93;;;13.70;99.90;;;;;;5051727;28;20547;-75
2021/12/31 04:58:11;;;;;;;7.60;5.40;;;13.70;99.90;;;;;;5051006;28;20263;-75
2021/12/31 05:00:39;;;;;;;7.33;5.80;;;13.70;99.90;;;;;;5048110;28;20551;-75
2021/12/31 05:03:09;;;;;;;5.77;4.83;;;13.70;99.90;;;;;;5050483;28;20199;-72
2021/12/31 05:05:37;;;;;;;7.80;5.33;;;13.70;99.90;;;;;;5050783;28;20203;-72
2021/12/31 05:08:05;;;;;;;7.33;5.30;;;13.70;99.90;;;;;;5050735;28;20253;-72
2021/12/31 05:10:33;;;;;;;8.60;5.10;;;13.70;99.90;;;;;;5049602;28;20206;-72
2021/12/31 05:13:02;;;;;;;4.87;4.23;;;13.70;99.90;;;;;;5049714;28;20202;-73
2021/12/31 05:15:33;;;;;;;6.47;4.60;;;13.70;99.90;;;;;;5050581;28;20211;-72
2021/12/31 05:18:01;;;;;;;5.67;4.17;;;13.70;99.90;;;;;;5050190;28;20233;-72
2021/12/31 05:20:28;;;;;;;7.03;4.67;;;13.70;99.90;;;;;;5049209;28;20623;-72
2021/12/31 05:22:57;;;;;;;7.77;4.13;;;13.70;99.90;;;;;;5050377;28;20286;-72
2021/12/31 05:25:24;;;;;;;4.00;3.67;;;13.70;99.90;;;;;;5049670;28;20264;-72
2021/12/31 05:27:51;;;;;;;4.50;3.37;;;13.80;99.90;;;;;;5051073;28;20199;-72
2021/12/31 05:30:20;;;;;;;4.10;3.40;;;13.90;99.90;;;;;;5048227;28;20203;-72
2021/12/31 05:32:47;;;;;;;5.93;3.40;;;13.80;99.90;;;;;;5049033;28;20187;-72
2021/12/31 05:35:14;;;;;;;4.80;3.47;;;13.80;99.90;;;;;;5049731;28;20245;-72
2021/12/31 05:37:41;;;;;;;7.50;3.70;;;13.70;99.90;;;;;;5049429;28;20673;-72
2021/12/31 05:40:09;;;;;;;5.23;3.30;;;13.80;99.90;;;;;;5050143;28;20237;-72
2021/12/31 05:42:36;;;;;;;5.30;3.17;;;13.90;99.90;;;;;;5050483;28;20264;-72
2021/12/31 05:45:04;;;;;;;5.37;3.10;;;13.80;99.90;;;;;;5050059;28;20245;-72
2021/12/31 05:47:32;;;;;;;3.20;2.90;;;13.80;99.90;;;;;;5049856;28;20649;-72
2021/12/31 05:49:59;;;;;;;3.23;2.77;;;13.70;99.90;;;;;;5048550;28;20543;-72
2021/12/31 05:52:26;;;;;;;5.43;3.13;;;13.70;99.90;;;;;;5050545;28;20248;-73
2021/12/31 05:54:53;;;;;;;5.37;3.30;;;13.80;99.90;;;;;;5054661;28;20272;-72
2021/12/31 05:57:20;;;;;;;3.63;3.13;;;13.80;99.90;;;;;;5053959;28;20277;-72
2021/12/31 05:59:47;;;;;;;3.17;2.70;;;13.80;99.90;;;;;;5054006;28;20207;-72
2021/12/31 06:02:14;;;;;;;4.17;3.03;;;13.80;99.90;;;;;;5052614;28;20191;-72
2021/12/31 06:04:42;;;;;;;4.60;2.60;;;13.80;99.90;;;;;;5051418;28;20187;-72
2021/12/31 06:07:10;;;;;;;5.43;2.73;;;13.90;99.90;;;;;;5054034;28;20616;-72
2021/12/31 06:09:37;;;;;;;3.97;2.47;;;13.90;99.90;;;;;;5054286;28;20242;-72
2021/12/31 06:12:04;;;;;;;3.93;2.60;;;13.80;99.90;;;;;;5053132;28;20636;-72
2021/12/31 06:14:32;;;;;;;4.43;2.40;;;13.90;99.90;;;;;;5052784;28;20657;-72
2021/12/31 06:17:06;;;;;;;4.43;2.40;;;13.80;99.90;;;;;;5052614;28;20672;-72
2021/12/31 06:19:33;;;;;;;2.50;2.20;;;13.80;99.90;;;;;;5053310;28;20413;-72
2021/12/31 06:22:01;;;;;;;5.27;2.37;;;13.90;99.90;;;;;;5053195;28;20215;-72
2021/12/31 06:24:28;;;;;;;4.13;2.30;;;13.90;99.90;;;;;;5053818;28;20207;-73
2021/12/31 06:26:55;;;;;;;4.60;2.77;;;13.90;99.90;;;;;;5051811;28;20195;-72
2021/12/31 06:29:22;;;;;;;4.93;3.60;;;13.90;99.90;;;;;;5052738;28;20642;-72
2021/12/31 06:31:49;;;;;;;6.40;3.03;;;13.90;99.90;;;;;;5054146;28;20227;-72
2021/12/31 06:34:16;;;;;;;3.23;2.67;;;13.90;99.90;;;;;;5052512;28;20207;-72
2021/12/31 06:36:43;;;;;;;4.77;2.30;;;14.00;99.90;;;;;;5053859;28;20276;-72
2021/12/31 06:39:11;;;;;;;5.30;2.20;;;13.90;99.90;;;;;;5053278;28;20750;-72
2021/12/31 06:41:38;;;;;;;4.07;2.17;;;13.80;99.90;;;;;;5053465;28;20195;-72
2021/12/31 06:44:06;;;;;;;5.13;2.53;;;13.80;99.90;;;;;;5052082;28;20637;-72
2021/12/31 06:46:33;;;;;;;4.40;2.27;;;13.80;99.90;;;;;;5054005;28;20683;-72
2021/12/31 06:49:00;;;;;;;4.20;2.17;;;13.80;99.90;;;;;;5052114;28;20268;-72
2021/12/31 06:51:27;;;;;;;3.37;1.93;;;13.90;99.90;;;;;;5052679;28;20272;-72
2021/12/31 06:53:54;;;;;;;2.00;1.83;;;13.80;99.90;;;;;;5054830;28;20196;-72
2021/12/31 06:56:22;;;;;;;5.23;2.30;;;13.90;99.90;;;;;;5054192;28;20199;-72
2021/12/31 06:58:49;;;;;;;4.57;2.27;;;13.90;99.90;;;;;;5053880;28;20588;-72
2021/12/31 07:01:16;;;;;;;3.43;1.80;;;13.90;99.90;;;;;;5053821;28;20203;-72
2021/12/31 07:03:43;;;;;;;3.77;2.10;;;13.90;99.90;;;;;;5052901;28;20198;-72
2021/12/31 07:06:10;;;;;;;2.83;1.97;;;13.80;99.90;;;;;;5053895;28;20202;-72
2021/12/31 07:08:38;;;;;;;3.43;1.80;;;13.80;99.90;;;;;;5054354;28;20213;-72
2021/12/31 07:11:05;;;;;;;4.40;2.07;;;13.90;99.90;;;;;;5054200;28;20207;-73
2021/12/31 07:13:35;;;;;;;2.33;1.70;;;13.80;99.90;;;;;;5052945;28;20207;-73
2021/12/31 07:16:02;;;;;;;4.60;1.70;;;13.80;99.90;;;;;;5050035;28;20199;-72
2021/12/31 07:18:29;;;;;;;5.27;1.87;;;13.90;99.90;;;;;;5053197;28;20230;-72
2021/12/31 07:20:56;;;;;;;3.23;1.73;;;13.90;99.90;;;;;;5053847;28;20195;-72
2021/12/31 07:23:24;;;;;;;3.97;2.20;;;13.90;99.90;;;;;;5052764;28;20202;-72
2021/12/31 07:25:51;;;;;;;4.63;2.10;;;13.80;99.90;;;;;;5052971;28;20669;-72
2021/12/31 07:28:18;;;;;;;3.40;1.50;;;13.70;99.90;;;;;;5050948;28;20191;-72
2021/12/31 07:30:47;;;;;;;4.97;2.50;;;13.60;99.90;;;;;;5035608;28;20587;-72
2021/12/31 07:33:18;;;;;;;3.80;2.20;;;13.60;99.90;;;;;;5052162;28;20207;-72
2021/12/31 07:35:45;;;;;;;4.37;1.80;;;13.50;99.90;;;;;;5052609;28;20653;-72
2021/12/31 07:38:19;;;;;;;4.30;1.93;;;13.70;99.90;;;;;;5052430;28;20225;-72
2021/12/31 07:40:47;;;;;;;3.30;1.60;;;13.60;99.90;;;;;;5049691;28;20199;-72
2021/12/31 07:43:14;;;;;;;2.23;1.57;;;13.70;99.90;;;;;;5051200;28;20207;-72
2021/12/31 07:45:41;;;;;;;2.87;1.60;;;13.70;99.90;;;;;;5053048;28;20210;-72
2021/12/31 07:48:10;;;;;;;2.50;1.73;;;13.70;99.90;;;;;;5050575;28;20195;-72
2021/12/31 07:50:37;;;;;;;2.93;1.90;;;13.80;99.90;;;;;;5053252;28;20664;-73
2021/12/31 07:53:05;;;;;;;5.43;1.70;;;13.70;99.90;;;;;;5052099;28;20195;-72
2021/12/31 07:55:32;;;;;;;4.33;1.77;;;13.60;99.90;;;;;;5053178;28;20210;-72
2021/12/31 07:57:59;;;;;;;1.80;1.70;;;13.50;99.90;;;;;;5051582;28;20586;-72
2021/12/31 08:00:26;;;;;;;4.47;2.67;;;13.50;99.90;;;;;;5052934;28;20203;-72
2021/12/31 08:02:54;;;;;;;5.00;2.27;;;13.60;99.90;;;;;;5047458;28;20689;-73
2021/12/31 08:05:23;;;;;;;3.10;2.27;;;13.60;99.90;;;;;;5053171;28;20225;-72
2021/12/31 08:07:50;;;;;;;4.30;2.50;;;13.60;99.90;;;;;;5051597;28;20199;-72
2021/12/31 08:10:17;;;;;;;4.43;3.00;;;13.60;99.90;;;;;;5052383;28;20225;-78
2021/12/31 08:12:43;;;;;;;4.33;3.07;;;13.60;99.90;;;;;;5050561;28;20237;-78
2021/12/31 08:15:11;;;;;;;3.30;2.07;;;13.50;99.90;;;;;;5051133;28;20316;-78
2021/12/31 08:17:38;;;;;;;3.33;1.93;;;13.60;99.90;;;;;;5046534;28;20249;-78
2021/12/31 08:20:06;;;;;;;4.60;2.87;;;13.60;99.90;;;;;;5051075;28;20261;-78
2021/12/31 08:22:35;;;;;;;3.00;2.70;;;13.70;99.90;;;;;;5050583;28;20211;-78
2021/12/31 08:25:02;;;;;;;4.20;2.50;;;13.80;99.90;;;;;;5051286;28;20744;-78
2021/12/31 08:27:29;;;;;;;2.57;2.17;;;13.80;99.90;;;;;;5049944;28;20735;-78
2021/12/31 08:29:56;;;;;;;3.43;2.10;;;13.90;99.90;;;;;;5051076;28;20652;-78
2021/12/31 08:32:23;;;;;;;4.50;2.13;;;14.00;99.90;;;;;;5047174;28;20202;-78
2021/12/31 08:34:50;;;;;;;4.57;2.33;;;14.00;99.90;;;;;;5050405;28;20203;-78
2021/12/31 08:37:16;;;;;;;4.10;2.70;;;14.20;99.90;;;;;;5050587;28;20241;-78
2021/12/31 08:39:45;;;;;;;3.80;2.40;;;14.30;99.90;;;;;;5050787;28;20222;-78
2021/12/31 08:42:12;;;;;;;4.40;2.77;;;14.30;99.90;;;;;;5048727;28;20199;-77
2021/12/31 08:44:39;;;;;;;4.47;2.60;;;14.20;99.90;;;;;;5049849;28;20199;-78
2021/12/31 08:47:06;;;;;;;3.23;2.43;;;14.40;99.90;;;;;;5051313;28;20234;-78
2021/12/31 08:49:33;;;;;;;2.53;2.33;;;14.40;99.90;;;;;;5048411;28;20664;-78
2021/12/31 08:52:00;;;;;;;3.60;2.13;;;14.50;99.90;;;;;;5050135;28;20253;-78
2021/12/31 08:54:27;;;;;;;2.20;2.00;;;14.50;99.90;;;;;;5049883;28;20203;-78
2021/12/31 08:56:57;;;;;;;3.00;2.53;;;14.60;99.90;;;;;;5050114;28;20253;-78
2021/12/31 08:59:24;;;;;;;5.73;2.50;;;14.70;99.90;;;;;;5046734;28;20262;-78
2021/12/31 09:01:51;;;;;;;6.03;2.20;;;14.80;99.90;;;;;;5050068;28;20256;-77
2021/12/31 09:04:18;;;;;;;3.73;2.40;;;14.80;99.90;;;;;;5049097;28;20235;-78
2021/12/31 09:06:45;;;;;;;3.20;2.73;;;14.60;99.90;;;;;;5050233;28;20848;-78
2021/12/31 09:09:12;;;;;;;4.87;2.87;;;14.50;99.90;;;;;;5048497;28;20628;-78
2021/12/31 09:11:40;;;;;;;3.47;2.70;;;14.50;99.90;;;;;;5049971;28;20288;-78
2021/12/31 09:14:08;;;;;;;2.83;2.53;;;14.50;99.90;;;;;;5050357;28;20198;-78
2021/12/31 09:16:35;;;;;;;2.73;2.13;;;14.40;99.90;;;;;;5049867;28;20210;-78
2021/12/31 09:19:03;;;;;;;4.73;2.20;;;14.50;99.90;;;;;;5049755;28;20293;-78
2021/12/31 09:21:30;;;;;;;3.03;2.20;;;14.50;99.90;;;;;;5049921;28;20203;-77
2021/12/31 09:23:57;;;;;;;4.83;2.43;;;14.30;99.90;;;;;;5049647;28;20229;-78
2021/12/31 09:26:24;;;;;;;4.43;3.03;;;14.40;99.90;;;;;;5049807;28;20198;-78
2021/12/31 09:28:51;;;;;;;2.60;2.23;;;14.40;99.90;;;;;;5049947;28;20573;-78
2021/12/31 09:31:19;;;;;;;1.50;1.37;;;14.50;99.90;;;;;;5049115;28;20206;-78
2021/12/31 09:33:46;;;;;;;2.37;1.50;;;14.60;99.90;;;;;;5043886;28;20252;-77
2021/12/31 09:36:13;;;;;;;2.77;1.63;;;14.50;99.90;;;;;;5049308;28;20210;-78
2021/12/31 09:38:40;;;;;;;2.73;1.40;;;14.60;99.90;;;;;;5049311;28;20219;-77
2021/12/31 09:41:07;;;;;;;2.60;1.70;;;14.70;99.90;;;;;;5048904;28;20210;-77
2021/12/31 09:43:34;;;;;;;3.60;1.50;;;14.70;99.90;;;;;;5045096;28;20195;-77
2021/12/31 09:46:01;;;;;;;3.13;2.10;;;14.70;99.90;;;;;;5050340;28;20199;-77
2021/12/31 09:48:30;;;;;;;2.33;1.73;;;14.70;99.90;;;;;;5049955;28;20206;-77
2021/12/31 09:50:57;;;;;;;2.57;1.50;;;14.60;99.90;;;;;;5049019;28;20207;-77
2021/12/31 09:53:26;;;;;;;4.53;1.90;;;14.50;99.90;;;;;;5049630;28;20272;-77
2021/12/31 09:55:55;;;;;;;1.87;1.57;;;14.70;99.90;;;;;;5050122;28;20229;-77
2021/12/31 09:58:23;;;;;;;2.53;1.80;;;14.70;99.90;;;;;;5050924;28;20211;-77
2021/12/31 10:00:52;;;;;;;2.80;1.70;;;14.60;99.90;;;;;;5049971;28;20202;-77
2021/12/31 10:03:22;;;;;;;4.13;1.70;;;14.60;99.90;;;;;;5047466;28;20195;-77
2021/12/31 10:05:52;;;;;;;2.63;1.67;;;14.60;99.90;;;;;;5046633;28;20239;-77
2021/12/31 10:08:21;;;;;;;3.33;2.10;;;14.60;99.90;;;;;;5049097;28;20205;-77
2021/12/31 10:11:08;;;;;;;1.87;1.60;;;14.70;99.90;;;;;;5048574;28;20211;-78
2021/12/31 10:13:36;;;;;;;1.43;1.27;;;14.60;99.90;;;;;;5049158;28;20206;-78
2021/12/31 10:16:03;;;;;;;1.50;1.40;;;14.70;99.90;;;;;;5050090;28;20203;-78
2021/12/31 10:18:32;;;;;;;1.60;1.33;;;14.70;99.90;;;;;;5049722;28;20198;-78
2021/12/31 10:21:02;;;;;;;4.80;1.60;;;14.80;99.90;;;;;;5045477;28;20203;-78
2021/12/31 10:23:30;;;;;;;2.97;1.53;;;14.70;99.90;;;;;;5048888;28;20273;-78
2021/12/31 10:26:13;;;;;;;2.53;1.90;;;14.70;99.90;;;;;;5048803;28;20308;-79
2021/12/31 10:28:53;;;;;;;2.90;2.33;;;14.70;99.90;;;;;;5050366;28;20236;-78
2021/12/31 10:31:20;;;;;;;2.70;1.87;;;14.70;99.90;;;;;;5048123;28;20584;-78
2021/12/31 10:33:48;;;;;;;1.83;1.57;;;14.70;99.90;;;;;;5047950;28;20216;-78
2021/12/31 10:36:38;;;;;;;1.93;1.77;;;14.70;99.90;;;;;;5049156;28;20292;-78
2021/12/31 10:39:20;;;;;;;3.10;1.77;;;14.70;99.90;;;;;;5050947;28;20313;-78
2021/12/31 10:41:51;;;;;;;2.03;1.70;;;14.80;99.90;;;;;;5053744;28;20205;-78
2021/12/31 10:44:18;;;;;;;3.53;1.67;;;14.70;99.90;;;;;;5053413;28;20632;-78
2021/12/31 10:46:45;;;;;;;3.88;1.70;;;14.60;99.90;;;;;;5050510;28;21158;-78
2021/12/31 10:49:13;;;;;;;1.60;1.50;;;14.70;99.90;;;;;;5051082;28;20195;-78
2021/12/31 10:51:44;;;;;;;3.47;1.87;;;14.70;99.90;;;;;;5053216;28;20681;-78
2021/12/31 10:54:28;;;;;;;2.97;2.00;;;14.70;99.90;;;;;;5053394;28;20214;-78
2021/12/31 10:56:56;;;;;;;1.67;1.57;;;14.80;99.90;;;;;;5049575;28;20199;-79
2021/12/31 10:59:23;;;;;;;3.40;1.83;;;14.70;99.90;;;;;;5051492;28;20622;-78
2021/12/31 11:01:50;;;;;;;1.70;1.60;;;14.60;99.90;;;;;;5052300;28;20293;-78
2021/12/31 11:04:20;;;;;;;3.03;1.70;;;14.60;99.90;;;;;;5047471;28;20225;-78
2021/12/31 11:06:49;;;;;;;2.07;1.97;;;14.60;99.90;;;;;;5052064;28;20199;-79
2021/12/31 11:09:16;;;;;;;3.30;1.90;;;14.70;99.90;;;;;;5050406;28;20210;-78
2021/12/31 11:11:44;;;;;;;2.57;2.13;;;14.80;99.90;;;;;;5050419;28;20207;-78
2021/12/31 11:14:12;;;;;;;4.30;2.33;;;14.80;99.90;;;;;;5048487;28;20256;-78
2021/12/31 11:16:40;;;;;;;2.30;2.10;;;14.80;99.90;;;;;;5051814;28;20203;-78
2021/12/31 11:19:08;;;;;;;2.60;2.00;;;14.80;99.90;;;;;;5047987;28;20223;-79
2021/12/31 11:21:36;;;;;;;3.10;2.17;;;14.80;99.90;;;;;;5048668;28;20210;-78
2021/12/31 11:24:31;;;;;;;2.50;2.03;;;14.90;99.90;;;;;;5048310;28;20203;-78
2021/12/31 11:26:59;;;;;;;2.77;2.03;;;14.90;99.90;;;;;;5050415;28;20207;-77
2021/12/31 11:29:36;;;;;;;2.07;1.87;;;14.90;99.90;;;;;;5045919;28;20221;-77
2021/12/31 11:32:04;;;;;;;1.90;1.80;;;14.90;99.90;;;;;;5045688;28;20207;-77
2021/12/31 11:34:31;;;;;;;2.63;1.90;;;14.90;99.90;;;;;;5044451;28;20199;-77
2021/12/31 11:36:58;;;;;;;2.60;1.90;;;14.90;99.90;;;;;;5047528;28;20206;-77
2021/12/31 11:39:29;;;;;;;1.80;1.70;;;14.90;99.90;;;;;;5047411;28;20230;-77
2021/12/31 11:41:59;;;;;;;3.63;2.10;;;14.80;99.90;;;;;;5046239;28;20202;-77
2021/12/31 11:44:27;;;;;;;3.93;2.00;;;14.80;99.90;;;;;;5046519;28;20211;-76
2021/12/31 11:47:13;;;;;;;3.87;2.13;;;14.70;99.90;;;;;;5050883;28;20524;-77
2021/12/31 11:49:40;;;;;;;2.17;1.87;;;14.70;99.90;;;;;;5049281;28;20210;-77
2021/12/31 11:52:09;;;;;;;2.43;2.00;;;14.70;99.90;;;;;;5051409;28;20658;-77
2021/12/31 11:54:38;;;;;;;2.23;1.80;;;14.70;99.90;;;;;;5051518;28;20199;-76
2021/12/31 11:57:11;;;;;;;3.40;2.20;;;14.70;99.90;;;;;;5051753;28;20217;-77
2021/12/31 11:59:58;;;;;;;1.63;1.53;;;14.80;99.90;;;;;;5052821;28;20214;-76
2021/12/31 12:02:40;;;;;;;3.60;1.87;;;14.80;99.90;;;;;;5049485;28;20703;-77
2021/12/31 12:05:17;;;;;;;2.00;1.60;;;14.80;99.90;;;;;;5052732;28;20256;-77
2021/12/31 12:07:49;;;;;;;1.57;1.43;;;14.80;99.90;;;;;;5052011;28;20293;-77
2021/12/31 12:10:19;;;;;;;2.70;1.90;;;14.80;99.90;;;;;;5051623;28;20199;-77
2021/12/31 12:12:51;;;;;;;2.03;1.80;;;14.70;99.90;;;;;;5051460;28;20615;-77
2021/12/31 12:15:35;;;;;;;2.07;1.77;;;14.60;99.90;;;;;;5049246;28;20199;-77
2021/12/31 12:18:06;;;;;;;3.63;1.93;;;14.70;99.90;;;;;;5050879;28;21730;-77
2021/12/31 12:20:45;;;;;;;2.83;2.00;;;14.60;99.90;;;;;;5052208;28;20223;-76
2021/12/31 12:23:20;;;;;;;6.60;2.03;;;14.60;99.90;;;;;;5049643;28;20223;-76
2021/12/31 12:25:47;;;;;;;1.90;1.77;;;14.70;99.90;;;;;;5050806;28;20604;-77
2021/12/31 12:28:16;;;;;;;4.17;2.20;;;14.70;99.90;;;;;;5050922;28;20213;-77
2021/12/31 12:30:47;;;;;;;2.80;1.77;;;14.70;99.90;;;;;;5051161;28;20195;-77
2021/12/31 12:33:21;;;;;;;3.03;1.80;;;14.70;99.90;;;;;;5047407;28;20207;-77
2021/12/31 12:35:49;;;;;;;1.93;1.50;;;14.70;99.90;;;;;;5051195;28;20209;-77
2021/12/31 12:38:20;;;;;;;2.53;1.63;;;14.70;99.90;;;;;;5050593;28;20199;-77
2021/12/31 12:40:50;;;;;;;2.83;1.60;;;14.70;99.90;;;;;;5051182;28;20647;-77
2021/12/31 12:43:20;;;;;;;1.90;1.80;;;14.70;99.90;;;;;;5047711;28;20209;-74
2021/12/31 12:45:49;;;;;;;2.13;1.77;;;14.70;99.90;;;;;;5050327;28;20203;-74
2021/12/31 12:48:16;;;;;;;3.83;2.13;;;14.60;99.90;;;;;;5048299;28;20202;-74
2021/12/31 12:50:51;;;;;;;1.87;1.40;;;14.60;99.90;;;;;;5050061;28;21681;-74
2021/12/31 12:53:23;;;;;;;3.43;2.00;;;14.70;99.90;;;;;;5048540;28;20199;-74